createdAt,value
2019-05-09T14:21:31.273Z,33.3028
2019-05-09T14:21:39.762Z,33.2662
2019-05-09T14:21:48.327Z,33.3181
2019-05-09T14:21:58.552Z,33.3303
2019-05-09T14:22:08.240Z,33.3181
2019-05-09T14:22:17.890Z,33.3303
2019-05-09T14:22:26.538Z,33.2799
2019-05-09T14:22:35.080Z,33.2525
2019-05-09T14:22:43.607Z,33.2937
2019-05-09T14:22:52.098Z,33.1746
2019-05-09T14:23:00.540Z,33.1991
2019-05-09T14:23:11.399Z,33.2265
2019-05-09T14:23:20.590Z,33.1853
2019-05-09T14:23:35.278Z,33.2479
2019-05-09T14:23:51.013Z,33.3257
2019-05-09T14:24:37.357Z,33.2616
2019-05-09T14:25:25.003Z,33.2982
2019-05-09T14:26:12.451Z,33.3211
2019-05-09T14:26:59.898Z,33.3715
2019-05-09T14:27:51.507Z,33.4600
2019-05-09T14:28:39.643Z,33.4463
2019-05-09T14:29:31.319Z,33.6278
2019-05-09T14:30:19.921Z,33.6416
2019-05-09T14:31:07.740Z,33.6645
2019-05-09T14:31:55.242Z,33.8796
2019-05-09T14:32:42.730Z,33.8659
2019-05-09T14:33:30.193Z,33.9208
2019-05-09T14:34:19.730Z,34.0810
2019-05-09T14:35:08.488Z,34.1405
2019-05-09T14:35:56.220Z,34.3114
2019-05-09T14:36:45.526Z,34.5586
2019-05-09T14:37:33.510Z,34.6670
2019-05-09T14:38:21.008Z,34.7951
2019-05-09T14:39:09.266Z,34.8913
2019-05-09T14:40:02.166Z,34.9615
2019-05-09T14:40:50.301Z,35.2544
2019-05-09T14:41:39.051Z,35.3490
2019-05-09T14:42:29.030Z,35.3964
2019-05-09T14:43:18.523Z,35.7290
2019-05-09T14:44:09.108Z,35.6741
2019-05-09T14:44:58.497Z,35.7580
2019-05-09T14:45:08.422Z,35.8633
2019-05-09T14:45:18.145Z,35.8724
2019-05-09T14:45:27.958Z,35.8068
2019-05-09T14:45:38.132Z,35.9091
2019-05-09T14:45:48.325Z,35.8892
2019-05-09T14:45:57.497Z,35.8068
2019-05-09T14:46:08.141Z,35.8404
2019-05-09T14:46:18.195Z,35.8663
2019-05-09T14:46:28.434Z,36.0403
2019-05-09T14:46:39.126Z,35.9091
2019-05-09T14:46:48.341Z,35.9579
2019-05-09T14:46:58.414Z,35.9319
2019-05-09T14:47:08.064Z,35.9579
2019-05-09T14:47:17.680Z,35.9579
2019-05-09T14:47:27.821Z,36.1730
2019-05-09T14:47:42.043Z,36.2295
2019-05-09T14:47:51.960Z,36.3027
2019-05-09T14:48:00.586Z,36.3119
2019-05-09T14:48:09.219Z,36.2387
2019-05-09T14:48:18.950Z,36.1929
2019-05-09T14:48:28.660Z,36.2753
2019-05-09T14:48:37.877Z,36.4065
2019-05-09T14:48:48.213Z,36.3256
2019-05-09T14:48:58.399Z,36.3027
2019-05-09T14:49:07.991Z,36.4630
2019-05-09T14:49:17.595Z,36.5621
2019-05-09T14:49:39.774Z,36.5530
2019-05-09T14:49:44.505Z,36.5087
2019-05-09T14:49:53.469Z,36.4630
2019-05-09T14:50:02.077Z,36.4660
2019-05-09T14:50:10.652Z,36.5820
2019-05-09T14:50:19.258Z,36.6415
2019-05-09T14:50:28.488Z,36.7590
2019-05-09T14:50:38.205Z,36.7361
2019-05-09T14:50:47.013Z,36.7010
2019-05-09T14:50:58.207Z,36.7834
2019-05-09T14:51:07.698Z,37.0214
2019-05-09T14:51:18.509Z,36.8322
2019-05-09T14:51:28.393Z,36.7956
2019-05-09T14:51:38.034Z,36.8185
2019-05-09T14:51:49.626Z,36.8185
2019-05-09T14:51:58.554Z,36.8551
2019-05-09T14:52:08.073Z,36.8826
2019-05-09T14:52:16.827Z,37.0123
2019-05-09T14:52:25.419Z,37.1710
2019-05-09T14:52:34.037Z,37.2671
2019-05-09T14:52:42.648Z,37.1542
2019-05-09T14:52:51.231Z,37.0520
2019-05-09T14:52:59.825Z,37.0626
2019-05-09T14:53:08.802Z,37.0291
2019-05-09T14:53:18.210Z,37.0153
2019-05-09T14:53:28.289Z,37.0031
2019-05-09T14:53:39.021Z,37.0169
2019-05-09T14:53:48.538Z,37.1221
2019-05-09T14:53:59.470Z,37.1817
2019-05-09T14:54:08.571Z,37.3083
2019-05-09T14:54:17.221Z,47.5746
2019-05-09T14:54:28.648Z,38.9075
2019-05-09T14:59:39.155Z,36.9421
2019-05-09T14:59:47.672Z,36.8475
2019-05-09T14:59:58.292Z,36.8566
2019-05-09T15:00:07.816Z,36.8093
2019-05-09T15:00:18.883Z,36.7605
2019-05-09T15:00:27.606Z,36.7361
2019-05-09T15:00:38.489Z,36.7010
2019-05-09T15:00:47.948Z,36.7590
2019-05-09T15:01:00.694Z,36.7590
2019-05-09T15:01:09.441Z,36.7590
2019-05-09T15:01:19.361Z,36.7453
2019-05-09T15:01:28.899Z,36.7926
2019-05-09T15:01:39.043Z,36.9100
2019-05-09T15:01:49.930Z,36.8154
2019-05-09T15:01:59.183Z,36.8643
2019-05-09T15:02:09.017Z,37.1221
2019-05-09T15:02:18.004Z,37.0291
2019-05-09T15:02:26.556Z,36.9924
2019-05-09T15:02:35.015Z,36.9696
2019-05-09T15:02:43.493Z,36.9329
2019-05-09T15:02:51.992Z,36.8872
2019-05-09T15:03:00.459Z,36.8750
2019-05-09T15:03:08.929Z,36.9574
2019-05-09T15:03:18.927Z,36.9696
2019-05-09T15:03:27.797Z,36.9421
2019-05-09T15:03:38.654Z,36.9192
2019-05-09T15:03:48.538Z,37.0016
2019-05-09T15:03:58.565Z,36.9299
2019-05-09T15:04:08.971Z,36.8368
2019-05-09T15:04:18.902Z,36.8612
2019-05-09T15:04:27.900Z,36.8521
2019-05-09T15:04:38.576Z,36.8841
2019-05-09T15:04:48.542Z,36.9070
2019-05-09T15:04:58.622Z,36.9436
2019-05-09T15:05:09.401Z,36.9299
2019-05-09T15:05:18.984Z,36.8978
2019-05-09T15:05:27.961Z,36.9299
2019-05-09T15:05:37.876Z,36.9665
2019-05-09T15:05:48.030Z,36.8841
2019-05-09T15:05:57.386Z,36.8597
2019-05-09T15:06:07.521Z,36.8566
2019-05-09T15:06:18.244Z,36.8475
2019-05-09T15:06:28.263Z,36.8734
2019-05-09T15:06:36.880Z,36.9162
2019-05-09T15:06:45.321Z,36.9558
2019-05-09T15:06:53.768Z,36.9879
2019-05-09T15:07:03.111Z,36.9558
2019-05-09T15:07:11.667Z,36.9192
2019-05-09T15:07:20.193Z,36.9055
2019-05-09T15:07:28.702Z,36.8460
2019-05-09T15:07:38.894Z,36.9253
2019-05-09T15:07:47.733Z,36.8795
2019-05-09T15:07:58.910Z,36.9986
2019-05-09T15:08:07.845Z,37.0199
2019-05-09T15:08:18.101Z,36.9375
2019-05-09T15:08:27.948Z,36.9055
2019-05-09T15:08:38.271Z,36.9055
2019-05-09T15:08:48.210Z,36.9146
2019-05-09T15:08:58.189Z,36.9879
2019-05-09T15:09:08.239Z,36.8795
2019-05-09T15:09:18.194Z,36.8704
2019-05-09T15:09:28.403Z,36.8460
2019-05-09T15:09:37.090Z,36.8917
2019-05-09T15:09:45.575Z,36.9512
2019-05-09T15:09:56.694Z,36.8689
2019-05-09T15:10:08.348Z,36.8414
2019-05-09T15:10:18.756Z,36.8460
2019-05-09T15:10:27.664Z,36.8795
2019-05-09T15:10:38.040Z,36.9146
2019-05-09T15:10:46.974Z,36.9253
2019-05-09T15:10:58.065Z,36.8780
2019-05-09T15:11:09.737Z,36.9390
2019-05-09T15:11:18.517Z,36.8566
2019-05-09T15:11:28.230Z,36.8566
2019-05-09T15:11:39.610Z,36.7834
2019-05-09T15:11:48.712Z,36.8566
2019-05-09T15:11:58.486Z,36.8246
2019-05-09T15:12:07.141Z,36.8566
2019-05-09T15:12:15.629Z,36.8460
2019-05-09T15:12:24.099Z,36.8689
2019-05-09T15:12:32.543Z,36.8933
2019-05-09T15:12:41.056Z,36.8658
2019-05-09T15:12:49.556Z,36.9162
2019-05-09T15:12:58.922Z,36.8795
2019-05-09T15:13:07.913Z,36.9146
2019-05-09T15:13:18.392Z,36.8460
2019-05-09T15:13:28.629Z,36.8322
2019-05-09T15:13:37.157Z,36.8460
2019-05-09T15:13:47.580Z,36.8063
2019-05-09T15:13:58.248Z,36.8322
2019-05-09T15:14:08.289Z,36.8292
2019-05-09T15:14:18.115Z,36.8277
2019-05-09T15:14:28.824Z,36.7559
2019-05-09T15:14:38.280Z,36.7224
2019-05-09T15:14:47.993Z,36.7330
2019-05-09T15:14:57.796Z,36.7086
2019-05-09T15:15:07.574Z,36.7102
2019-05-09T15:15:17.978Z,36.7224
2019-05-09T15:15:32.050Z,36.7086
2019-05-09T15:15:41.312Z,36.7086
2019-05-09T15:15:49.823Z,36.7086
2019-05-09T15:15:58.331Z,36.7086
2019-05-09T15:16:08.869Z,36.6735
2019-05-09T15:16:18.427Z,36.6644
2019-05-09T15:16:28.265Z,36.6400
2019-05-09T15:16:39.097Z,36.6995
2019-05-09T15:16:48.645Z,36.6995
2019-05-09T15:16:57.570Z,36.6629
2019-05-09T15:17:08.631Z,36.6629
2019-05-09T15:17:18.519Z,36.6369
2019-05-09T15:17:27.655Z,36.6827
2019-05-09T15:17:36.181Z,36.6354
2019-05-09T15:17:44.727Z,36.6094
2019-05-09T15:17:53.199Z,36.6125
2019-05-09T15:18:01.716Z,36.6461
2019-05-09T15:18:10.211Z,36.5728
2019-05-09T15:18:18.689Z,36.6232
2019-05-09T15:18:27.233Z,36.6125
2019-05-09T15:18:35.678Z,36.6003
2019-05-09T15:18:44.151Z,36.5866
2019-05-09T15:18:52.629Z,36.5759
2019-05-09T15:19:01.084Z,36.5896
2019-05-09T15:19:18.241Z,36.5637
2019-05-09T15:19:28.733Z,36.5164
2019-05-09T15:19:38.592Z,36.5393
2019-05-09T15:19:57.369Z,36.4843
2019-05-09T15:20:01.686Z,36.4202
2019-05-09T15:20:10.160Z,36.4569
2019-05-09T15:20:18.668Z,36.4935
2019-05-09T15:20:28.094Z,36.5393
2019-05-09T15:20:38.031Z,36.5484
2019-05-09T15:20:47.910Z,36.5026
2019-05-09T15:20:58.136Z,36.4706
2019-05-09T15:21:07.987Z,36.4706
2019-05-09T15:21:18.905Z,36.4813
2019-05-09T15:21:27.727Z,36.3943
2019-05-09T15:21:38.168Z,36.3760
2019-05-09T15:21:48.776Z,36.3622
2019-05-09T15:22:00.369Z,36.3745
2019-05-09T15:22:09.353Z,36.3745
2019-05-09T15:22:17.817Z,36.4340
2019-05-09T15:22:28.387Z,36.4340
2019-05-09T15:22:38.769Z,36.4218
2019-05-09T15:22:47.959Z,36.3653
2019-05-09T15:22:58.613Z,36.3531
2019-05-09T15:23:08.588Z,36.3653
2019-05-09T15:23:19.650Z,36.3333
2019-05-09T15:23:29.169Z,36.3851
2019-05-09T15:23:39.239Z,36.2661
2019-05-09T15:23:48.270Z,36.2097
2019-05-09T15:23:58.821Z,36.2554
2019-05-09T15:24:09.171Z,36.2432
2019-05-09T15:24:19.193Z,36.2463
2019-05-09T15:24:28.744Z,36.3302
2019-05-09T15:24:38.822Z,36.3058
2019-05-09T15:24:47.799Z,36.2463
2019-05-09T15:24:58.890Z,36.2325
2019-05-09T15:25:08.810Z,36.2005
2019-05-09T15:25:19.258Z,36.2142
2019-05-09T15:25:29.106Z,36.2570
2019-05-09T15:25:37.609Z,36.2112
2019-05-09T15:25:48.021Z,36.2371
2019-05-09T15:25:58.111Z,36.2936
2019-05-09T15:26:07.709Z,36.2463
2019-05-09T15:26:17.656Z,36.3165
2019-05-09T15:26:27.545Z,36.3485
2019-05-09T15:26:37.377Z,36.3027
2019-05-09T15:26:47.776Z,36.2432
2019-05-09T15:26:57.989Z,36.2463
2019-05-09T15:27:06.649Z,36.2341
2019-05-09T15:27:17.491Z,36.2432
2019-05-09T15:27:27.685Z,36.2203
2019-05-09T15:27:38.412Z,36.2570
2019-05-09T15:27:47.671Z,36.2661
2019-05-09T15:27:57.959Z,36.3378
2019-05-09T15:28:08.233Z,36.3149
2019-05-09T15:28:17.556Z,36.2661
2019-05-09T15:28:26.226Z,36.2661
2019-05-09T15:28:35.260Z,36.2554
2019-05-09T15:28:43.729Z,36.2463
2019-05-09T15:28:52.191Z,36.2570
2019-05-09T15:29:00.650Z,36.2799
2019-05-09T15:29:17.558Z,36.1730
2019-05-09T15:29:26.019Z,36.2417
2019-05-09T15:29:35.082Z,36.2753
2019-05-09T15:29:43.534Z,36.2875
2019-05-09T15:29:52.018Z,36.3119
2019-05-09T15:30:00.510Z,36.3256
2019-05-09T15:30:18.734Z,36.2646
2019-05-09T15:30:28.651Z,36.2188
2019-05-09T15:30:38.535Z,36.1959
2019-05-09T15:30:48.873Z,36.1700
2019-05-09T15:30:59.411Z,36.1364
2019-05-09T15:31:08.879Z,36.1181
2019-05-09T15:31:18.336Z,36.1929
2019-05-09T15:31:28.700Z,36.2051
2019-05-09T15:31:39.105Z,36.1471
2019-05-09T15:31:54.654Z,36.1334
2019-05-09T15:32:06.042Z,36.0967
2019-05-09T15:32:15.216Z,36.0632
2019-05-09T15:32:23.689Z,36.0739
2019-05-09T15:32:32.140Z,36.0967
2019-05-09T15:32:40.643Z,36.0540
2019-05-09T15:32:51.724Z,36.0647
2019-05-09T15:33:00.506Z,35.9808
2019-05-09T15:33:08.956Z,36.0037
2019-05-09T15:33:17.674Z,35.9640
2019-05-09T15:33:27.491Z,36.0601
2019-05-09T15:33:37.543Z,36.0174
2019-05-09T15:33:48.442Z,35.9304
2019-05-09T15:33:57.127Z,35.9533
2019-05-09T15:34:05.624Z,35.9670
2019-05-09T15:34:14.134Z,35.9670
2019-05-09T15:34:22.625Z,35.9670
2019-05-09T15:34:31.101Z,35.9411
2019-05-09T15:34:48.015Z,35.9350
2019-05-09T15:34:57.770Z,35.9304
2019-05-09T15:35:08.671Z,35.9075
2019-05-09T15:35:18.253Z,35.9075
2019-05-09T15:35:28.111Z,35.8938
2019-05-09T15:35:38.483Z,35.8846
2019-05-09T15:35:48.741Z,35.8709
2019-05-09T15:35:58.944Z,35.9182
2019-05-09T15:36:09.163Z,35.9182
2019-05-09T15:36:19.244Z,35.8587
2019-05-09T15:36:27.951Z,35.8816
2019-05-09T15:36:37.919Z,35.8816
2019-05-09T15:36:48.303Z,35.8679
2019-05-09T15:36:58.167Z,35.9121
2019-05-09T15:37:08.856Z,35.9625
2019-05-09T15:37:18.648Z,35.9304
2019-05-09T15:37:28.566Z,35.9304
2019-05-09T15:37:38.623Z,35.9182
2019-05-09T15:37:48.029Z,35.9167
2019-05-09T15:37:59.083Z,35.8724
2019-05-09T15:38:08.567Z,35.8343
2019-05-09T15:38:18.107Z,35.8343
2019-05-09T15:38:29.057Z,35.8358
2019-05-09T15:38:38.046Z,35.8343
2019-05-09T15:38:48.624Z,35.8083
2019-05-09T15:38:59.182Z,35.7488
2019-05-09T15:39:08.084Z,35.7763
2019-05-09T15:39:18.400Z,35.7977
2019-05-09T15:39:27.757Z,35.7153
2019-05-09T15:39:38.079Z,35.7259
2019-05-09T15:39:48.444Z,35.7153
2019-05-09T15:39:57.077Z,35.6573
2019-05-09T15:40:08.383Z,35.6802
2019-05-09T15:40:17.846Z,35.6710
2019-05-09T15:40:28.178Z,35.6893
2019-05-09T15:40:38.646Z,35.6695
2019-05-09T15:40:48.090Z,35.6100
2019-05-09T15:40:56.809Z,35.6207
2019-05-09T15:41:05.520Z,35.6100
2019-05-09T15:41:19.909Z,35.5505
2019-05-09T15:41:28.381Z,35.5276
2019-05-09T15:41:38.474Z,35.6420
2019-05-09T15:41:47.875Z,35.6649
2019-05-09T15:41:58.010Z,35.5367
2019-05-09T15:42:07.378Z,35.5383
2019-05-09T15:42:18.144Z,35.4742
2019-05-09T15:42:26.906Z,35.5840
2019-05-09T15:42:35.352Z,35.5825
2019-05-09T15:42:43.839Z,35.5245
2019-05-09T15:42:52.297Z,35.5459
2019-05-09T15:43:00.737Z,35.5138
2019-05-09T15:43:18.556Z,35.5337
2019-05-09T15:43:27.269Z,35.5474
2019-05-09T15:43:38.015Z,35.5932
2019-05-09T15:43:48.563Z,35.5795
2019-05-09T15:43:57.895Z,35.6054
2019-05-09T15:44:08.253Z,35.5688
2019-05-09T15:44:18.662Z,35.5108
2019-05-09T15:44:27.318Z,35.5138
2019-05-09T15:44:37.945Z,35.4742
2019-05-09T15:44:47.661Z,35.4635
2019-05-09T15:44:58.903Z,35.4742
2019-05-09T15:45:07.829Z,35.5016
2019-05-09T15:45:18.270Z,35.4879
2019-05-09T15:45:28.548Z,35.4635
2019-05-09T15:45:40.689Z,35.4406
2019-05-09T15:45:49.560Z,35.4314
2019-05-09T15:45:58.343Z,35.3078
2019-05-09T15:46:08.399Z,35.3185
2019-05-09T15:46:18.623Z,35.3094
2019-05-09T15:46:27.877Z,35.3552
2019-05-09T15:46:38.371Z,35.3872
2019-05-09T15:46:46.933Z,35.4498
2019-05-09T15:46:55.495Z,35.4147
2019-05-09T15:47:03.950Z,35.3582
2019-05-09T15:47:12.409Z,35.3216
2019-05-09T15:47:20.900Z,35.3078
2019-05-09T15:47:38.075Z,35.4009
2019-05-09T15:47:48.279Z,35.3872
2019-05-09T15:47:58.365Z,35.4360
2019-05-09T15:48:07.667Z,35.3994
2019-05-09T15:48:18.064Z,35.4223
2019-05-09T15:48:27.513Z,35.4330
2019-05-09T15:48:38.037Z,35.4360
2019-05-09T15:48:46.626Z,35.4330
2019-05-09T15:48:55.061Z,35.4238
2019-05-09T15:49:03.597Z,35.3780
2019-05-09T15:49:12.083Z,35.3780
2019-05-09T15:49:20.574Z,35.3674
2019-05-09T15:49:38.508Z,35.3902
2019-05-09T15:49:49.386Z,35.3185
2019-05-09T15:50:14.666Z,35.3185
2019-05-09T15:50:20.044Z,35.3445
2019-05-09T15:50:27.844Z,35.3582
2019-05-09T15:50:38.130Z,35.3323
2019-05-09T15:50:47.668Z,35.2346
2019-05-09T15:50:58.226Z,35.2361
2019-05-09T15:51:07.591Z,35.2132
2019-05-09T15:51:18.023Z,35.2255
2019-05-09T15:51:27.942Z,35.2255
2019-05-09T15:51:38.497Z,35.2026
2019-05-09T15:51:47.803Z,35.1431
2019-05-09T15:51:58.354Z,35.1202
2019-05-09T15:52:07.486Z,35.1904
2019-05-09T15:52:18.049Z,35.1537
2019-05-09T15:52:28.620Z,35.1812
2019-05-09T15:52:38.260Z,35.2163
2019-05-09T15:52:46.905Z,35.1934
2019-05-09T15:52:57.527Z,35.1171
2019-05-09T15:53:08.445Z,35.2132
2019-05-09T15:53:18.503Z,35.2361
2019-05-09T15:53:27.786Z,35.2361
2019-05-09T15:53:38.091Z,35.2728
2019-05-09T15:53:48.680Z,35.1904
2019-05-09T15:53:57.862Z,35.2132
2019-05-09T15:54:08.262Z,35.1904
2019-05-09T15:54:17.850Z,35.1629
2019-05-09T15:54:29.206Z,35.0668
2019-05-09T15:54:38.637Z,35.0469
2019-05-09T15:54:47.265Z,35.0713
2019-05-09T15:54:57.921Z,35.0851
2019-05-09T15:55:09.359Z,35.0851
2019-05-09T15:55:18.146Z,35.0851
2019-05-09T15:55:28.306Z,35.0240
2019-05-09T15:55:37.086Z,35.1629
2019-05-09T15:55:47.856Z,35.1385
2019-05-09T15:55:58.581Z,35.0576
2019-05-09T15:56:08.041Z,35.1064
2019-05-09T15:56:18.791Z,35.0835
2019-05-09T15:56:28.850Z,35.0118
2019-05-09T15:56:38.420Z,34.9844
2019-05-09T15:56:48.321Z,34.9508
2019-05-09T15:56:58.042Z,34.9645
2019-05-09T15:57:08.632Z,35.0210
2019-05-09T15:57:17.680Z,35.0469
2019-05-09T15:57:27.551Z,35.0469
2019-05-09T15:57:37.799Z,34.9706
2019-05-09T15:57:48.473Z,34.9844
2019-05-09T15:57:57.674Z,34.9844
2019-05-09T15:58:06.294Z,34.9157
2019-05-09T15:58:14.772Z,34.9508
2019-05-09T15:58:23.246Z,34.9615
2019-05-09T15:58:31.719Z,34.9508
2019-05-09T15:58:40.219Z,34.8791
2019-05-09T15:58:49.117Z,34.8928
2019-05-09T15:58:58.156Z,34.8150
2019-05-09T15:59:06.687Z,34.8867
2019-05-09T15:59:17.924Z,34.8821
2019-05-09T15:59:28.088Z,34.8424
2019-05-09T15:59:38.988Z,34.8272
2019-05-09T15:59:48.019Z,34.8913
2019-05-09T15:59:58.827Z,34.8516
2019-05-09T16:00:08.236Z,34.7921
2019-05-09T16:00:19.101Z,34.8150
2019-05-09T16:00:28.452Z,34.8043
2019-05-09T16:00:38.634Z,34.7921
2019-05-09T16:00:47.768Z,34.7829
2019-05-09T16:00:58.677Z,34.7463
2019-05-09T16:01:08.190Z,34.7555
2019-05-09T16:01:18.389Z,34.7234
2019-05-09T16:01:27.819Z,34.7677
2019-05-09T16:01:38.591Z,34.7585
2019-05-09T16:01:49.139Z,34.7127
2019-05-09T16:01:58.517Z,34.7829
2019-05-09T16:02:09.092Z,34.7631
2019-05-09T16:02:19.117Z,34.7723
2019-05-09T16:02:28.328Z,34.7234
2019-05-09T16:02:39.014Z,34.7372
2019-05-09T16:02:48.456Z,34.6899
2019-05-09T16:02:58.987Z,34.7127
2019-05-09T16:03:07.719Z,34.7234
2019-05-09T16:03:18.422Z,34.7372
2019-05-09T16:03:27.916Z,34.7356
2019-05-09T16:03:38.257Z,34.7692
2019-05-09T16:03:48.622Z,34.7234
2019-05-09T16:03:57.272Z,34.6624
2019-05-09T16:04:08.368Z,34.6899
2019-05-09T16:04:17.696Z,34.6365
2019-05-09T16:04:28.028Z,34.6166
2019-05-09T16:04:39.834Z,34.6166
2019-05-09T16:04:48.769Z,34.6502
2019-05-09T16:04:58.379Z,34.6365
2019-05-09T16:05:10.460Z,34.6532
2019-05-09T16:05:19.328Z,34.7448
2019-05-09T16:05:27.802Z,34.7463
2019-05-09T16:05:38.565Z,34.7219
2019-05-09T16:05:47.828Z,34.7265
2019-05-09T16:05:58.479Z,34.6899
2019-05-09T16:06:09.039Z,34.6136
2019-05-09T16:06:19.337Z,34.6532
2019-05-09T16:06:32.904Z,34.6410
2019-05-09T16:06:41.850Z,34.6410
2019-05-09T16:06:51.673Z,34.5815
2019-05-09T16:07:00.712Z,34.6044
2019-05-09T16:07:09.228Z,34.6166
2019-05-09T16:07:17.957Z,34.6303
2019-05-09T16:07:28.393Z,34.6044
2019-05-09T16:07:37.484Z,34.6273
2019-05-09T16:07:48.174Z,34.6761
2019-05-09T16:07:58.566Z,34.6166
2019-05-09T16:08:09.120Z,34.5937
2019-05-09T16:08:19.871Z,34.6273
2019-05-09T16:08:28.897Z,34.6502
2019-05-09T16:08:38.201Z,34.5907
2019-05-09T16:08:46.769Z,34.5174
2019-05-09T16:08:55.266Z,34.5571
2019-05-09T16:09:07.828Z,34.5449
2019-05-09T16:09:18.232Z,34.5571
2019-05-09T16:09:28.622Z,34.5571
2019-05-09T16:09:37.844Z,34.5708
2019-05-09T16:09:48.279Z,34.5220
2019-05-09T16:09:58.003Z,34.5312
2019-05-09T16:10:08.616Z,34.4717
2019-05-09T16:10:18.198Z,34.4839
2019-05-09T16:10:28.341Z,34.4121
2019-05-09T16:10:37.436Z,34.4350
2019-05-09T16:10:45.975Z,34.4945
2019-05-09T16:10:54.446Z,34.4976
2019-05-09T16:11:02.927Z,34.4945
2019-05-09T16:11:11.434Z,34.4945
2019-05-09T16:11:19.900Z,34.4839
